Time;durP1;ratioP1;P1;durP2;ratioP2;P2;SDS_P1;SDS_P2;PMS_P1;PMS_P2;Temp;Humidity;BMP_temperature;BMP_pressure;BME280_temperature;BME280_humidity;BME280_pressure;Samples;Min_cycle;Max_cycle;Signal;HPM_P1;HPM_P2
2021/12/03 00:00:52;;;;;;;9.82;2.60;;;18.90;61.70;;;;;;4480915;31;20120;-79
2021/12/03 00:03:19;;;;;;;9.45;2.30;;;18.90;61.80;;;;;;4479020;31;20147;-80
2021/12/03 00:05:45;;;;;;;10.80;2.22;;;18.90;61.80;;;;;;4481237;31;20178;-79
2021/12/03 00:08:11;;;;;;;6.93;2.30;;;18.90;61.80;;;;;;4478782;31;20270;-79
2021/12/03 00:10:38;;;;;;;9.13;2.33;;;18.80;61.80;;;;;;4481024;31;20159;-80
2021/12/03 00:13:07;;;;;;;6.95;2.17;;;18.80;61.80;;;;;;4479776;31;20129;-79
2021/12/03 00:15:35;;;;;;;8.15;2.40;;;18.80;61.90;;;;;;4479576;32;20135;-79
2021/12/03 00:18:01;;;;;;;7.90;2.20;;;18.80;61.90;;;;;;4480881;32;20113;-80
2021/12/03 00:20:27;;;;;;;5.85;1.92;;;18.80;61.90;;;;;;4477395;32;20187;-80
2021/12/03 00:22:57;;;;;;;10.70;2.20;;;18.70;61.90;;;;;;4480972;31;20117;-79
2021/12/03 00:25:23;;;;;;;6.75;2.33;;;18.70;61.90;;;;;;4478681;31;20198;-80
2021/12/03 00:27:49;;;;;;;7.05;2.00;;;18.70;62.00;;;;;;4479601;32;20156;-80
2021/12/03 00:30:16;;;;;;;8.23;2.17;;;18.70;62.00;;;;;;4479349;32;20140;-79
2021/12/03 00:32:44;;;;;;;8.18;2.20;;;18.70;62.00;;;;;;4479480;32;20633;-80
2021/12/03 00:35:11;;;;;;;6.00;2.10;;;18.70;62.10;;;;;;4480636;32;20128;-80
2021/12/03 00:37:38;;;;;;;6.35;1.85;;;18.60;62.00;;;;;;4478648;32;20121;-79
2021/12/03 00:40:07;;;;;;;4.45;1.42;;;18.60;62.10;;;;;;4480853;32;20132;-80
2021/12/03 00:42:33;;;;;;;7.22;1.98;;;18.60;62.10;;;;;;4478525;32;20151;-79
2021/12/03 00:44:59;;;;;;;4.85;1.60;;;18.60;62.20;;;;;;4480511;32;20133;-80
2021/12/03 00:47:25;;;;;;;6.65;1.88;;;18.60;62.20;;;;;;4479540;32;20163;-79
2021/12/03 00:49:51;;;;;;;6.70;1.73;;;18.60;62.20;;;;;;4479366;32;20198;-79
2021/12/03 00:52:18;;;;;;;8.05;2.38;;;18.60;62.30;;;;;;4480265;32;20291;-79
2021/12/03 00:54:44;;;;;;;5.72;1.92;;;18.50;62.20;;;;;;4478477;32;20137;-80
2021/12/03 00:57:10;;;;;;;7.50;1.80;;;18.50;62.30;;;;;;4479629;32;20589;-80
2021/12/03 00:59:36;;;;;;;7.30;1.50;;;18.50;62.30;;;;;;4478496;32;20137;-80
2021/12/03 01:02:02;;;;;;;4.22;1.55;;;18.50;62.30;;;;;;4480727;32;20125;-79
2021/12/03 01:04:28;;;;;;;7.40;1.80;;;18.50;62.30;;;;;;4479144;32;20121;-79
2021/12/03 01:06:54;;;;;;;5.13;1.98;;;18.50;62.30;;;;;;4479440;32;20147;-79
2021/12/03 01:09:21;;;;;;;5.03;1.67;;;18.40;62.40;;;;;;4480526;32;20132;-79
2021/12/03 01:11:48;;;;;;;4.13;1.52;;;18.40;62.40;;;;;;4478675;32;20117;-79
2021/12/03 01:14:16;;;;;;;5.63;1.90;;;18.40;62.40;;;;;;4480432;32;20161;-80
2021/12/03 01:16:42;;;;;;;5.97;1.70;;;18.40;62.40;;;;;;4478633;32;20125;-80
2021/12/03 01:19:08;;;;;;;5.13;1.67;;;18.40;62.40;;;;;;4479265;32;20139;-80
2021/12/03 01:21:35;;;;;;;3.78;1.40;;;18.40;62.50;;;;;;4479231;32;20183;-81
2021/12/03 01:24:01;;;;;;;4.47;1.30;;;18.30;62.40;;;;;;4479494;32;20176;-80
2021/12/03 01:26:27;;;;;;;4.57;1.55;;;18.30;62.50;;;;;;4480228;32;20259;-80
2021/12/03 01:28:53;;;;;;;3.72;1.52;;;18.30;62.40;;;;;;4478376;32;20152;-80
2021/12/03 01:31:19;;;;;;;6.43;1.13;;;18.30;62.50;;;;;;4480233;32;20129;-79
2021/12/03 01:33:46;;;;;;;4.63;1.65;;;18.30;62.50;;;;;;4478436;32;20203;-81
2021/12/03 01:36:13;;;;;;;4.45;1.35;;;18.30;62.60;;;;;;4480353;32;20140;-81
2021/12/03 01:38:39;;;;;;;3.10;1.30;;;18.30;62.50;;;;;;4478724;32;20152;-80
2021/12/03 01:41:05;;;;;;;4.53;1.42;;;18.30;62.60;;;;;;4479516;32;20121;-81
2021/12/03 01:43:32;;;;;;;3.92;1.35;;;18.20;62.50;;;;;;4482034;32;20085;-80
2021/12/03 01:46:05;;;;;;;4.38;1.23;;;18.20;62.50;;;;;;4481284;31;20132;-80
2021/12/03 01:48:31;;;;;;;4.18;1.40;;;18.20;62.50;;;;;;4483142;32;20117;-79
2021/12/03 01:50:58;;;;;;;3.25;1.10;;;18.20;62.50;;;;;;4481018;32;20133;-80
2021/12/03 01:53:27;;;;;;;3.67;1.10;;;18.20;62.50;;;;;;4482785;32;20210;-80
2021/12/03 01:55:56;;;;;;;5.65;1.40;;;18.20;62.50;;;;;;4481923;31;20151;-80
2021/12/03 01:58:22;;;;;;;3.58;0.98;;;18.20;62.50;;;;;;4481573;31;20800;-80
2021/12/03 02:00:58;;;;;;;1.73;0.88;;;18.20;62.50;;;;;;4483173;31;20462;-81
2021/12/03 02:03:29;;;;;;;6.38;1.50;;;18.20;63.10;;;;;;4480648;31;20242;-80
2021/12/03 02:05:56;;;;;;;3.58;1.35;;;18.20;62.60;;;;;;4483072;31;20190;-80
2021/12/03 02:08:22;;;;;;;4.97;1.52;;;18.10;62.60;;;;;;4479682;32;20832;-80
2021/12/03 02:10:49;;;;;;;2.92;1.10;;;18.10;62.50;;;;;;4482636;32;20220;-80
2021/12/03 02:13:15;;;;;;;3.17;0.95;;;18.10;63.40;;;;;;4482487;31;20190;-80
2021/12/03 02:15:43;;;;;;;5.57;1.33;;;18.10;62.60;;;;;;4480841;31;20530;-80
2021/12/03 02:18:10;;;;;;;3.78;1.35;;;18.10;62.60;;;;;;4483069;31;20151;-77
2021/12/03 02:20:47;;;;;;;3.33;1.30;;;18.10;62.60;;;;;;4496068;31;20181;-80
2021/12/03 02:23:15;;;;;;;6.55;1.35;;;18.10;62.60;;;;;;4498492;31;20128;-80
2021/12/03 02:25:42;;;;;;;3.03;1.30;;;18.10;62.60;;;;;;4496732;31;20117;-79
2021/12/03 02:28:08;;;;;;;3.10;1.20;;;18.10;63.50;;;;;;4497427;31;20141;-79
2021/12/03 02:30:35;;;;;;;3.35;1.27;;;18.10;62.60;;;;;;4497755;31;20085;-78
2021/12/03 02:33:01;;;;;;;2.70;1.00;;;18.00;62.60;;;;;;4496270;31;20139;-80
2021/12/03 02:35:27;;;;;;;2.67;1.25;;;18.00;62.60;;;;;;4483851;31;20136;-79
2021/12/03 02:37:54;;;;;;;2.28;0.95;;;18.00;62.60;;;;;;4495785;31;20129;-80
2021/12/03 02:40:21;;;;;;;2.33;1.00;;;18.00;62.60;;;;;;4498248;31;20231;-80
2021/12/03 02:42:48;;;;;;;3.78;1.17;;;18.00;62.60;;;;;;4496398;31;20147;-80
2021/12/03 02:45:15;;;;;;;3.55;1.02;;;18.00;62.60;;;;;;4497432;31;20160;-80
2021/12/03 02:47:42;;;;;;;3.35;1.20;;;18.00;62.60;;;;;;4483680;31;20081;-79
2021/12/03 02:50:10;;;;;;;2.08;0.82;;;18.00;62.60;;;;;;4496272;31;20125;-80
2021/12/03 02:52:36;;;;;;;4.13;1.45;;;18.00;62.70;;;;;;4497918;31;20125;-80
2021/12/03 02:55:04;;;;;;;2.53;0.80;;;17.90;62.60;;;;;;4495634;31;20136;-79
2021/12/03 02:57:30;;;;;;;3.70;1.10;;;17.90;62.60;;;;;;4497719;31;20226;-79
2021/12/03 02:59:55;;;;;;;3.10;1.05;;;17.90;62.70;;;;;;4496102;31;20270;-79
2021/12/03 03:02:21;;;;;;;3.53;1.33;;;17.90;62.60;;;;;;4497055;31;20117;-79
2021/12/03 03:04:48;;;;;;;2.72;1.00;;;17.90;62.60;;;;;;4497203;31;20089;-79
2021/12/03 03:07:14;;;;;;;2.75;1.00;;;17.90;62.60;;;;;;4495772;31;20140;-80
2021/12/03 03:09:44;;;;;;;3.33;0.98;;;17.90;62.60;;;;;;4497458;31;20133;-79
2021/12/03 03:12:11;;;;;;;2.45;0.90;;;17.90;62.60;;;;;;4495296;31;20143;-79
2021/12/03 03:14:46;;;;;;;3.28;0.80;;;17.90;62.60;;;;;;4497555;31;20124;-79
2021/12/03 03:17:13;;;;;;;2.17;0.75;;;17.90;62.60;;;;;;4496392;31;20615;-79
2021/12/03 03:19:40;;;;;;;2.25;0.90;;;17.80;62.60;;;;;;4496172;31;20139;-80
2021/12/03 03:22:06;;;;;;;1.70;0.70;;;17.80;62.50;;;;;;4497187;31;20121;-79
2021/12/03 03:24:32;;;;;;;2.78;0.98;;;17.80;62.50;;;;;;4495556;31;20129;-79
2021/12/03 03:26:58;;;;;;;2.75;0.80;;;17.80;62.50;;;;;;4497461;31;20193;-79
2021/12/03 03:29:24;;;;;;;3.15;1.00;;;17.80;62.50;;;;;;4495411;31;20141;-79
2021/12/03 03:31:52;;;;;;;2.60;1.08;;;17.80;62.60;;;;;;4497049;31;20129;-80
2021/12/03 03:34:17;;;;;;;3.22;0.80;;;17.80;62.50;;;;;;4495951;31;20659;-78
2021/12/03 03:36:43;;;;;;;2.60;1.10;;;17.80;62.50;;;;;;4496141;31;20251;-80
2021/12/03 03:39:12;;;;;;;3.70;0.95;;;17.80;62.60;;;;;;4496984;31;20554;-79
2021/12/03 03:41:39;;;;;;;1.58;0.80;;;17.80;62.60;;;;;;4494992;31;20184;-79
2021/12/03 03:44:06;;;;;;;3.38;0.90;;;17.80;62.60;;;;;;4497176;31;20275;-79
2021/12/03 03:46:32;;;;;;;2.20;1.02;;;17.70;62.50;;;;;;4494911;31;20140;-79
2021/12/03 03:48:58;;;;;;;1.50;0.70;;;17.70;62.50;;;;;;4497186;31;20109;-78
2021/12/03 03:51:24;;;;;;;1.60;0.73;;;17.70;62.50;;;;;;4481495;31;20132;-79
2021/12/03 03:53:49;;;;;;;1.80;0.68;;;17.70;62.50;;;;;;4496059;31;20510;-79
2021/12/03 03:56:16;;;;;;;1.20;0.68;;;17.70;62.50;;;;;;4496633;31;20089;-78
2021/12/03 03:58:42;;;;;;;2.90;0.85;;;17.70;62.50;;;;;;4494699;31;20697;-79
2021/12/03 04:01:09;;;;;;;3.15;1.13;;;17.70;62.50;;;;;;4497077;31;20140;-79
2021/12/03 04:03:35;;;;;;;2.03;0.70;;;17.70;62.50;;;;;;4494653;31;20142;-80
2021/12/03 04:06:02;;;;;;;3.08;0.75;;;17.70;62.50;;;;;;4496385;31;20718;-78
2021/12/03 04:08:29;;;;;;;2.58;0.77;;;17.70;62.50;;;;;;4495634;31;20121;-78
2021/12/03 04:10:59;;;;;;;2.45;0.68;;;17.60;62.40;;;;;;4495832;31;20117;-80
2021/12/03 04:13:26;;;;;;;1.92;0.60;;;17.60;62.40;;;;;;4496567;31;20532;-79
2021/12/03 04:15:53;;;;;;;3.30;0.90;;;17.60;62.40;;;;;;4494656;31;20120;-80
2021/12/03 04:18:20;;;;;;;2.60;0.70;;;17.60;62.40;;;;;;4496656;31;20128;-79
2021/12/03 04:20:46;;;;;;;2.85;0.70;;;17.60;62.40;;;;;;4494237;31;20486;-79
2021/12/03 04:23:17;;;;;;;1.40;0.77;;;17.60;62.40;;;;;;4496940;31;20238;-79
2021/12/03 04:25:43;;;;;;;2.50;0.75;;;17.60;62.40;;;;;;4495149;31;20199;-78
2021/12/03 04:28:09;;;;;;;1.80;0.63;;;17.60;62.50;;;;;;4495833;31;20671;-79
2021/12/03 04:30:35;;;;;;;2.17;0.70;;;17.60;62.40;;;;;;4496395;31;20096;-78
2021/12/03 04:33:01;;;;;;;2.17;0.60;;;17.60;62.50;;;;;;4494446;31;20596;-79
2021/12/03 04:35:28;;;;;;;1.38;0.68;;;17.60;62.50;;;;;;4496681;31;20144;-79
2021/12/03 04:37:57;;;;;;;2.25;0.77;;;17.60;62.40;;;;;;4494144;32;20191;-79
2021/12/03 04:40:23;;;;;;;1.60;0.55;;;17.60;62.40;;;;;;4496711;32;20132;-79
2021/12/03 04:42:50;;;;;;;2.90;0.70;;;17.60;62.50;;;;;;4495069;32;20129;-78
2021/12/03 04:45:20;;;;;;;2.95;0.63;;;17.60;62.50;;;;;;4495527;32;20250;-79
2021/12/03 04:47:47;;;;;;;1.73;0.70;;;17.50;62.50;;;;;;4496141;32;20242;-78
2021/12/03 04:50:13;;;;;;;1.95;0.60;;;17.50;62.50;;;;;;4494759;32;20132;-79
2021/12/03 04:52:40;;;;;;;1.40;0.60;;;17.50;62.50;;;;;;4496711;32;20148;-79
2021/12/03 04:55:09;;;;;;;1.38;0.60;;;17.50;62.50;;;;;;4494286;32;20217;-80
2021/12/03 04:57:35;;;;;;;1.23;0.60;;;17.50;62.50;;;;;;4496382;32;20136;-79
2021/12/03 05:00:03;;;;;;;1.98;0.55;;;17.50;62.50;;;;;;4494975;32;20124;-79
2021/12/03 05:02:29;;;;;;;1.40;0.50;;;17.50;62.50;;;;;;4494368;32;20225;-79
2021/12/03 05:05:00;;;;;;;1.27;0.50;;;17.50;62.50;;;;;;4496036;32;20140;-79
2021/12/03 05:07:32;;;;;;;1.77;0.63;;;17.50;62.50;;;;;;4494344;32;20133;-79
2021/12/03 05:09:58;;;;;;;1.73;0.60;;;17.50;62.50;;;;;;4496183;32;20109;-79
2021/12/03 05:12:24;;;;;;;1.58;0.40;;;17.50;62.50;;;;;;4493667;31;20289;-79
2021/12/03 05:14:50;;;;;;;1.17;0.45;;;17.50;62.50;;;;;;4490705;31;20137;-80
2021/12/03 05:17:16;;;;;;;1.67;0.60;;;17.40;62.50;;;;;;4494300;31;20267;-79
2021/12/03 05:19:43;;;;;;;1.95;0.75;;;17.50;62.50;;;;;;4472241;31;20148;-79
2021/12/03 05:22:09;;;;;;;1.52;0.70;;;17.40;62.40;;;;;;4498148;31;20145;-79
2021/12/03 05:24:35;;;;;;;1.10;0.60;;;17.40;62.50;;;;;;4482384;31;20131;-79
2021/12/03 05:27:01;;;;;;;1.42;0.70;;;17.40;62.50;;;;;;4498715;31;20423;-80
2021/12/03 05:29:27;;;;;;;1.98;0.60;;;17.40;62.50;;;;;;4494386;31;20132;-79
2021/12/03 05:31:52;;;;;;;1.45;0.60;;;17.40;62.50;;;;;;4497187;31;20112;-80
2021/12/03 05:34:22;;;;;;;2.08;0.70;;;17.40;62.40;;;;;;4496578;31;20124;-79
2021/12/03 05:36:48;;;;;;;0.88;0.50;;;17.40;62.50;;;;;;4497464;31;20140;-80
2021/12/03 05:39:14;;;;;;;2.85;0.60;;;17.30;62.40;;;;;;4498009;31;20123;-78
2021/12/03 05:41:40;;;;;;;1.83;0.60;;;17.30;62.40;;;;;;4496266;31;20128;-79
2021/12/03 05:44:06;;;;;;;2.05;0.68;;;17.30;62.40;;;;;;4498542;31;20124;-79
2021/12/03 05:46:33;;;;;;;1.58;0.60;;;17.30;62.40;;;;;;4498231;31;20133;-78
2021/12/03 05:48:59;;;;;;;1.83;0.60;;;17.30;62.40;;;;;;4497349;31;20155;-79
2021/12/03 05:51:26;;;;;;;1.35;0.50;;;17.30;62.40;;;;;;4496478;31;20125;-79
2021/12/03 05:53:53;;;;;;;1.45;0.63;;;17.40;62.50;;;;;;4496565;31;20143;-78
2021/12/03 05:56:19;;;;;;;1.30;0.63;;;17.30;62.40;;;;;;4497461;31;20133;-79
2021/12/03 05:58:45;;;;;;;1.30;0.60;;;17.30;62.40;;;;;;4493505;31;20731;-79
2021/12/03 06:01:11;;;;;;;1.23;0.60;;;17.30;62.30;;;;;;4497541;31;20139;-79
2021/12/03 06:03:37;;;;;;;2.05;0.52;;;17.30;62.30;;;;;;4495196;31;20187;-79
2021/12/03 06:06:03;;;;;;;0.95;0.47;;;17.30;62.30;;;;;;4488392;31;20275;-79
2021/12/03 06:08:29;;;;;;;2.40;0.77;;;17.30;62.40;;;;;;4480403;32;20131;-78
2021/12/03 06:10:55;;;;;;;0.90;0.60;;;17.30;62.40;;;;;;4481859;32;20132;-78
2021/12/03 06:13:21;;;;;;;1.13;0.70;;;17.30;62.30;;;;;;4495709;31;20077;-78
2021/12/03 06:15:48;;;;;;;1.63;0.70;;;17.30;62.30;;;;;;4496537;31;20144;-79
2021/12/03 06:18:14;;;;;;;1.92;0.63;;;17.30;62.30;;;;;;4497627;31;20275;-79
2021/12/03 06:20:41;;;;;;;0.65;0.45;;;17.30;62.30;;;;;;4490396;31;20172;-78
2021/12/03 06:23:07;;;;;;;1.40;0.70;;;17.20;62.30;;;;;;4496993;31;20149;-79
2021/12/03 06:25:33;;;;;;;1.88;0.57;;;17.20;62.30;;;;;;4495816;31;20104;-78
2021/12/03 06:27:59;;;;;;;2.13;0.70;;;17.20;62.30;;;;;;4495970;31;20203;-79
2021/12/03 06:30:25;;;;;;;1.42;0.60;;;17.20;62.30;;;;;;4494897;31;20155;-78
2021/12/03 06:32:53;;;;;;;0.95;0.50;;;17.20;62.30;;;;;;4495255;31;20282;-79
2021/12/03 06:35:19;;;;;;;1.55;0.70;;;17.20;62.30;;;;;;4497078;31;20136;-78
2021/12/03 06:37:46;;;;;;;0.90;0.52;;;17.20;62.30;;;;;;4492741;31;20513;-79
2021/12/03 06:40:16;;;;;;;0.90;0.68;;;17.20;62.30;;;;;;4482798;31;20147;-80
2021/12/03 06:42:42;;;;;;;0.95;0.40;;;17.20;62.30;;;;;;4482101;31;20249;-79
2021/12/03 06:45:09;;;;;;;1.55;0.40;;;17.20;62.30;;;;;;4496979;31;20761;-79
2021/12/03 06:47:35;;;;;;;2.40;0.68;;;17.20;62.30;;;;;;4497847;31;20235;-79
2021/12/03 06:50:03;;;;;;;1.27;0.50;;;17.10;62.30;;;;;;4495767;31;20124;-80
2021/12/03 06:52:31;;;;;;;1.50;0.63;;;17.10;62.30;;;;;;4497900;31;20143;-79
2021/12/03 06:55:01;;;;;;;0.95;0.57;;;17.10;62.30;;;;;;4495590;31;20135;-78
2021/12/03 06:57:27;;;;;;;1.48;0.70;;;17.10;62.30;;;;;;4497886;31;20137;-79
2021/12/03 06:59:53;;;;;;;1.83;0.60;;;17.10;62.40;;;;;;4496391;31;20121;-79
2021/12/03 07:02:19;;;;;;;1.45;0.63;;;17.10;62.30;;;;;;4496809;31;20136;-79
2021/12/03 07:04:45;;;;;;;1.58;0.60;;;17.10;62.30;;;;;;4497430;31;20081;-78
2021/12/03 07:07:11;;;;;;;1.98;0.55;;;17.10;62.40;;;;;;4495616;31;20139;-79
2021/12/03 07:09:37;;;;;;;1.50;0.63;;;17.10;62.30;;;;;;4498017;31;20234;-79
2021/12/03 07:12:04;;;;;;;1.13;0.45;;;17.10;62.30;;;;;;4480911;31;20151;-79
2021/12/03 07:14:30;;;;;;;1.38;0.60;;;17.10;62.40;;;;;;4483537;31;20348;-79
2021/12/03 07:16:58;;;;;;;1.52;0.40;;;17.10;62.40;;;;;;4496112;31;20141;-78
2021/12/03 07:19:23;;;;;;;1.40;0.50;;;17.10;62.40;;;;;;4496624;31;20178;-79
2021/12/03 07:21:50;;;;;;;0.77;0.50;;;17.10;62.40;;;;;;4497015;31;20522;-78
2021/12/03 07:24:16;;;;;;;1.83;0.73;;;17.10;63.20;;;;;;4495642;31;20133;-79
2021/12/03 07:26:42;;;;;;;1.35;0.52;;;17.10;62.30;;;;;;4497463;31;20454;-78
2021/12/03 07:29:08;;;;;;;2.72;0.73;;;17.00;62.30;;;;;;4480786;31;20660;-78
2021/12/03 07:31:34;;;;;;;0.43;0.40;;;17.00;62.30;;;;;;4497434;31;20116;-79
2021/12/03 07:34:00;;;;;;;1.15;0.60;;;17.00;62.30;;;;;;4495665;31;20135;-79
2021/12/03 07:36:27;;;;;;;2.08;0.57;;;17.00;62.30;;;;;;4496798;31;20610;-78
2021/12/03 07:38:53;;;;;;;1.67;0.50;;;17.00;62.30;;;;;;4496623;31;20140;-79
2021/12/03 07:41:19;;;;;;;1.52;0.45;;;17.00;62.20;;;;;;4480539;31;20143;-79
2021/12/03 07:43:45;;;;;;;2.35;0.68;;;17.00;63.10;;;;;;4497216;31;20125;-79
2021/12/03 07:46:10;;;;;;;1.60;0.30;;;17.00;62.20;;;;;;4467805;31;20144;-75
2021/12/03 07:48:37;;;;;;;1.08;0.52;;;16.90;62.20;;;;;;4470078;31;20612;-76
2021/12/03 07:51:03;;;;;;;3.85;1.20;;;17.00;62.20;;;;;;4495172;31;20120;-76
2021/12/03 07:53:29;;;;;;;3.25;1.40;;;17.00;61.80;;;;;;4482425;31;20270;-76
2021/12/03 07:55:55;;;;;;;4.18;1.50;;;16.90;61.10;;;;;;4496442;31;20130;-81
2021/12/03 07:58:21;;;;;;;2.30;1.10;;;16.90;60.60;;;;;;4494962;31;20254;-82
2021/12/03 08:00:47;;;;;;;2.92;1.25;;;16.80;60.50;;;;;;4496966;31;20112;-85
2021/12/03 08:03:13;;;;;;;2.88;1.00;;;16.80;60.70;;;;;;4494622;31;20542;-88
2021/12/03 08:05:39;;;;;;;2.50;1.00;;;16.80;60.80;;;;;;4483184;31;20109;-80
2021/12/03 08:08:06;;;;;;;1.92;0.88;;;16.80;60.90;;;;;;4495145;31;20124;-89
2021/12/03 08:10:35;;;;;;;2.15;0.90;;;16.80;60.90;;;;;;4496661;31;20136;-89
2021/12/03 08:13:02;;;;;;;2.30;0.95;;;16.80;60.80;;;;;;4496213;31;20178;-88
2021/12/03 08:15:28;;;;;;;2.28;0.88;;;16.80;60.80;;;;;;4495095;31;20136;-84
2021/12/03 08:17:53;;;;;;;2.75;0.93;;;16.80;60.70;;;;;;4482911;31;20124;-90
2021/12/03 08:20:19;;;;;;;13.32;1.05;;;16.90;60.80;;;;;;4481199;31;20442;-88
2021/12/03 08:22:46;;;;;;;2.85;0.80;;;17.00;60.70;;;;;;4497141;31;20143;-86
2021/12/03 08:25:13;;;;;;;2.50;0.90;;;17.10;60.60;;;;;;4480535;31;20533;-87
2021/12/03 08:27:40;;;;;;;2.17;0.60;;;17.10;60.30;;;;;;4482607;31;20250;-85
2021/12/03 08:30:09;;;;;;;1.45;0.70;;;17.30;60.00;;;;;;4495997;31;20266;-88
2021/12/03 08:32:38;;;;;;;4.68;0.65;;;17.40;59.80;;;;;;4495319;31;20124;-87
2021/12/03 08:35:05;;;;;;;2.85;0.60;;;17.50;59.40;;;;;;4496553;31;20140;-84
2021/12/03 08:37:34;;;;;;;1.60;0.70;;;17.60;59.20;;;;;;4494973;31;20178;-90
2021/12/03 08:39:59;;;;;;;1.90;0.70;;;17.70;59.10;;;;;;4482524;32;20128;-86
2021/12/03 08:42:25;;;;;;;1.80;0.70;;;17.80;58.80;;;;;;4494740;32;20166;-84
2021/12/03 08:44:51;;;;;;;3.70;0.85;;;17.90;58.60;;;;;;4496102;32;20179;-83
2021/12/03 08:47:17;;;;;;;2.42;0.50;;;18.00;58.30;;;;;;4495689;32;20158;-85
2021/12/03 08:55:14;;;;;;;3.33;0.55;;;18.40;57.60;;;;;;4448173;32;20140;-84
2021/12/03 08:57:40;;;;;;;2.42;0.63;;;18.50;57.30;;;;;;4488194;31;20121;-84
2021/12/03 09:00:19;;;;;;;3.70;1.08;;;18.60;57.00;;;;;;4499026;31;20127;-86
2021/12/03 09:02:45;;;;;;;1.83;0.63;;;18.70;56.80;;;;;;4497744;31;20120;-83
2021/12/03 09:05:12;;;;;;;1.85;0.60;;;18.90;56.50;;;;;;4499800;31;20285;-86
2021/12/03 09:07:39;;;;;;;0.73;0.40;;;19.00;57.20;;;;;;4496863;31;20310;-83
2021/12/03 09:10:10;;;;;;;1.60;0.52;;;19.10;56.00;;;;;;4496777;31;20133;-87
2021/12/03 09:12:36;;;;;;;3.75;0.50;;;19.20;55.70;;;;;;4495465;31;20147;-85
2021/12/03 09:15:07;;;;;;;3.50;0.50;;;19.30;55.40;;;;;;4484744;31;20668;-88
2021/12/03 09:22:34;;;;;;;1.58;0.50;;;19.60;54.80;;;;;;4499049;31;20198;-83
2021/12/03 09:25:02;;;;;;;1.52;0.40;;;19.70;54.60;;;;;;4498600;31;20116;-78
2021/12/03 09:27:29;;;;;;;4.45;0.80;;;19.90;54.40;;;;;;4514257;31;20161;-87
2021/12/03 09:29:56;;;;;;;7.32;0.52;;;19.90;54.20;;;;;;4513954;31;20120;-87
2021/12/03 09:32:28;;;;;;;0.73;0.25;;;20.00;54.00;;;;;;4507802;31;20285;-88
2021/12/03 09:34:54;;;;;;;0.75;0.32;;;20.10;54.70;;;;;;4499470;31;20129;-88
2021/12/03 09:37:21;;;;;;;1.60;0.40;;;20.20;53.60;;;;;;4496918;31;20125;-89
2021/12/03 09:39:48;;;;;;;2.13;0.65;;;20.30;53.30;;;;;;4499560;31;20152;-88
2021/12/03 09:42:15;;;;;;;3.28;0.68;;;20.40;53.20;;;;;;4497286;31;20136;-87
2021/12/03 09:44:44;;;;;;;3.47;0.80;;;20.40;53.00;;;;;;4499021;31;20262;-86
2021/12/03 09:47:11;;;;;;;2.80;0.43;;;20.50;52.80;;;;;;4498214;31;20171;-75
2021/12/03 09:49:38;;;;;;;4.32;0.50;;;20.50;52.70;;;;;;4469738;31;20133;-78
2021/12/03 09:54:39;;;;;;;2.38;0.63;;;20.60;52.70;;;;;;4496415;31;20151;-76
2021/12/03 09:57:10;;;;;;;2.05;0.60;;;20.60;52.70;;;;;;4498943;31;20187;-77
2021/12/03 09:59:57;;;;;;;6.60;0.60;;;20.60;52.80;;;;;;4482669;31;20129;-79
2021/12/03 10:21:38;;;;;;;1.33;0.70;;;20.90;52.60;;;;;;4496736;31;20257;-79
2021/12/03 10:24:39;;;;;;;3.05;0.70;;;20.90;52.40;;;;;;4495924;31;20160;-76
2021/12/03 10:33:43;;;;;;;5.03;0.88;;;21.10;52.10;;;;;;4495558;31;20113;-80
2021/12/03 10:41:14;;;;;;;2.50;0.70;;;21.20;51.60;;;;;;4471972;31;25273;-79
2021/12/03 10:52:08;;;;;;;5.35;0.93;;;21.20;51.70;;;;;;4496602;31;20459;-72
2021/12/03 11:03:23;;;;;;;3.03;0.73;;;21.20;51.70;;;;;;4484852;31;20147;-73
2021/12/03 12:41:21;;;;;;;7.65;1.13;;;22.10;49.80;;;;;;4480041;32;20136;-81
2021/12/03 14:00:30;;;;;;;3.42;1.20;;;22.70;49.30;;;;;;4496474;31;20368;-80
2021/12/03 14:03:45;;;;;;;2.53;1.13;;;22.70;49.40;;;;;;4487197;31;20204;-76
2021/12/03 14:23:55;;;;;;;2.63;1.00;;;22.80;49.70;;;;;;4481185;31;20182;-82
2021/12/03 14:42:24;;;;;;;4.78;1.08;;;22.80;49.80;;;;;;4478372;31;20152;-78
2021/12/03 14:44:51;;;;;;;6.15;1.55;;;22.60;49.50;;;;;;4478238;31;20160;-78
2021/12/03 14:52:46;;;;;;;3.83;1.00;;;22.20;50.50;;;;;;4484011;31;20139;-82
2021/12/03 14:55:29;;;;;;;7.65;0.82;;;22.10;50.80;;;;;;4480869;31;20262;-77
2021/12/03 14:58:07;;;;;;;7.82;1.00;;;22.00;51.10;;;;;;4480839;31;20380;-80
2021/12/03 15:03:25;;;;;;;5.78;0.90;;;21.80;51.60;;;;;;4479282;31;20133;-82
2021/12/03 15:06:19;;;;;;;9.68;1.00;;;21.80;51.80;;;;;;4494786;31;20139;-84
2021/12/03 15:08:59;;;;;;;;;;;21.80;52.00;;;;;;4480842;31;20117;-85
2021/12/03 15:33:06;;;;;;;5.35;0.98;;;21.50;53.20;;;;;;4476910;31;20129;-76
2021/12/03 15:35:43;;;;;;;3.58;1.33;;;21.40;53.40;;;;;;4480363;31;20282;-78
2021/12/03 16:10:24;;;;;;;1.70;0.80;;;20.90;55.50;;;;;;4487545;31;20147;-76
2021/12/03 16:52:37;;;;;;;1.55;0.90;;;20.80;55.60;;;;;;4480703;32;20148;-74
2021/12/03 16:55:04;;;;;;;2.08;0.70;;;20.80;55.50;;;;;;4478892;32;20564;-74
2021/12/03 16:57:35;;;;;;;1.58;0.70;;;20.80;55.50;;;;;;4478896;32;20128;-74
2021/12/03 17:00:20;;;;;;;2.85;0.80;;;20.80;55.40;;;;;;4479002;32;20167;-76
2021/12/03 17:03:02;;;;;;;1.38;0.60;;;20.80;55.50;;;;;;4479803;32;20133;-78
2021/12/03 17:15:57;;;;;;;1.13;0.70;;;20.80;55.10;;;;;;4481192;31;20848;-75
2021/12/03 17:58:25;;;;;;;2.70;0.50;;;21.00;55.10;;;;;;4487895;31;20075;-73
2021/12/03 18:03:30;;;;;;;1.05;0.60;;;21.00;55.00;;;;;;4495628;31;20137;-73
2021/12/03 18:16:43;;;;;;;0.95;0.40;;;21.00;54.90;;;;;;4478672;31;20132;-73
2021/12/03 18:19:36;;;;;;;0.75;0.40;;;21.00;54.90;;;;;;4485066;31;20150;-72
2021/12/03 18:44:06;;;;;;;0.73;0.47;;;20.90;55.50;;;;;;4493117;31;20187;-74
2021/12/03 18:59:10;;;;;;;0.45;0.30;;;20.90;55.90;;;;;;4486834;31;20133;-75
2021/12/03 19:01:37;;;;;;;2.83;0.30;;;20.90;56.00;;;;;;4504451;31;20136;-74
2021/12/03 19:04:20;;;;;;;0.68;0.20;;;20.90;56.00;;;;;;4495790;31;20137;-76
2021/12/03 19:09:32;;;;;;;0.40;0.20;;;20.90;56.20;;;;;;4496378;31;20696;-75
2021/12/03 19:12:09;;;;;;;2.03;0.30;;;20.90;56.30;;;;;;4495051;31;20155;-77
2021/12/03 19:14:38;;;;;;;0.50;0.32;;;20.90;56.20;;;;;;4496276;31;20151;-75
2021/12/03 19:17:07;;;;;;;0.32;0.20;;;20.90;56.30;;;;;;4495564;31;20276;-76
2021/12/03 19:19:38;;;;;;;3.25;0.30;;;20.90;56.30;;;;;;4494469;31;20142;-78
2021/12/03 19:22:04;;;;;;;0.75;0.20;;;20.90;56.30;;;;;;4496846;31;20136;-76
2021/12/03 19:24:31;;;;;;;0.52;0.30;;;20.90;56.30;;;;;;4478658;31;20133;-76
2021/12/03 19:26:57;;;;;;;0.52;0.30;;;20.90;56.40;;;;;;4480897;31;20136;-77
2021/12/03 19:29:23;;;;;;;0.52;0.30;;;20.90;56.40;;;;;;4478882;31;20161;-78
2021/12/03 19:31:51;;;;;;;1.38;0.30;;;20.90;56.40;;;;;;4493906;31;20125;-77
2021/12/03 19:34:25;;;;;;;0.40;0.20;;;20.90;56.50;;;;;;4482416;31;20148;-79
2021/12/03 19:36:53;;;;;;;0.82;0.20;;;20.90;56.50;;;;;;4479551;31;20148;-76
2021/12/03 19:39:20;;;;;;;0.40;0.25;;;20.90;56.50;;;;;;4479467;31;20136;-74
2021/12/03 19:44:29;;;;;;;0.50;0.30;;;20.90;56.60;;;;;;4481235;31;20133;-75
2021/12/03 19:46:55;;;;;;;0.47;0.28;;;20.90;56.60;;;;;;4482692;31;20271;-75
2021/12/03 19:51:56;;;;;;;0.70;0.30;;;21.00;56.70;;;;;;4478514;31;20141;-75
2021/12/03 19:54:23;;;;;;;0.40;0.30;;;21.00;56.70;;;;;;4478113;31;20180;-79
2021/12/03 19:56:50;;;;;;;1.38;0.20;;;21.00;56.80;;;;;;4484511;31;20164;-77
2021/12/03 19:59:18;;;;;;;4.63;0.30;;;21.00;56.80;;;;;;4479991;31;20239;-80
2021/12/03 20:01:46;;;;;;;0.68;0.20;;;21.00;56.90;;;;;;4481818;31;20198;-78
2021/12/03 20:04:15;;;;;;;0.60;0.20;;;21.00;56.90;;;;;;4481000;31;20222;-71
2021/12/03 20:06:44;;;;;;;0.40;0.40;;;21.00;57.00;;;;;;4490220;31;20137;-74
2021/12/03 20:09:16;;;;;;;1.00;0.60;;;20.90;56.70;;;;;;4480825;31;20211;-75
2021/12/03 20:11:51;;;;;;;2.53;0.68;;;21.00;56.50;;;;;;4479393;31;20143;-75
2021/12/03 20:14:19;;;;;;;0.40;0.22;;;20.90;56.50;;;;;;4479581;31;20152;-75
2021/12/03 20:16:54;;;;;;;1.55;0.47;;;20.90;56.60;;;;;;4465501;31;20140;-75
2021/12/03 20:19:39;;;;;;;0.75;0.40;;;20.90;56.40;;;;;;4479283;31;20149;-76
2021/12/03 20:27:23;;;;;;;1.30;0.38;;;20.90;56.40;;;;;;4480349;31;20577;-75
2021/12/03 20:30:04;;;;;;;1.95;0.50;;;21.00;56.40;;;;;;4481992;31;20153;-74
2021/12/03 20:37:44;;;;;;;0.35;0.30;;;21.00;56.40;;;;;;4477491;31;20137;-73
2021/12/03 20:40:17;;;;;;;0.45;0.28;;;21.00;56.50;;;;;;4485246;31;20221;-73
2021/12/03 20:43:13;;;;;;;0.60;0.30;;;21.00;56.40;;;;;;4479817;32;20144;-77
2021/12/03 20:53:43;;;;;;;1.83;0.20;;;21.10;56.60;;;;;;4482100;31;20145;-80
2021/12/03 21:09:42;;;;;;;0.52;0.22;;;21.10;57.70;;;;;;4483161;31;20147;-76
2021/12/03 21:12:22;;;;;;;0.82;0.30;;;21.10;56.90;;;;;;4481809;31;20129;-75
2021/12/03 21:22:43;;;;;;;0.60;0.40;;;21.10;57.10;;;;;;4483151;31;20217;-79
2021/12/03 21:25:11;;;;;;;1.33;0.50;;;21.10;57.10;;;;;;4481318;31;20164;-74
2021/12/03 21:27:43;;;;;;;0.88;0.40;;;21.10;57.10;;;;;;4489369;31;20121;-78